sensor_id;sensor_type;location;lat;lon;timestamp;pressure;altitude;pressure_sealevel;temperature
53412;BMP280;39307;52.870;13.660;2023-03-31T00:01:00;99912.56;;;9.42
53412;BMP280;39307;52.870;13.660;2023-03-31T00:03:26;99904.56;;;9.43
53412;BMP280;39307;52.870;13.660;2023-03-31T00:05:57;99902.34;;;9.47
53412;BMP280;39307;52.870;13.660;2023-03-31T00:08:24;99903.53;;;9.44
53412;BMP280;39307;52.870;13.660;2023-03-31T00:10:51;99899.31;;;9.43
53412;BMP280;39307;52.870;13.660;2023-03-31T00:13:16;99898.94;;;9.46
53412;BMP280;39307;52.870;13.660;2023-03-31T00:15:43;99895.94;;;9.49
53412;BMP280;39307;52.870;13.660;2023-03-31T00:18:09;99893.31;;;9.49
53412;BMP280;39307;52.870;13.660;2023-03-31T00:20:35;99889.09;;;9.54
53412;BMP280;39307;52.870;13.660;2023-03-31T00:23:01;99890.91;;;9.54
53412;BMP280;39307;52.870;13.660;2023-03-31T00:25:27;99885.69;;;9.54
53412;BMP280;39307;52.870;13.660;2023-03-31T00:27:54;99887.50;;;9.53
53412;BMP280;39307;52.870;13.660;2023-03-31T00:30:20;99888.53;;;9.59
53412;BMP280;39307;52.870;13.660;2023-03-31T00:32:46;99869.63;;;9.57
53412;BMP280;39307;52.870;13.660;2023-03-31T00:35:12;99877.47;;;9.57
53412;BMP280;39307;52.870;13.660;2023-03-31T00:37:38;99887.09;;;9.50
53412;BMP280;39307;52.870;13.660;2023-03-31T00:40:05;99885.28;;;9.50
53412;BMP280;39307;52.870;13.660;2023-03-31T00:42:31;99877.66;;;9.49
53412;BMP280;39307;52.870;13.660;2023-03-31T00:47:46;99874.03;;;9.56
53412;BMP280;39307;52.870;13.660;2023-03-31T00:50:16;99865.19;;;9.51
53412;BMP280;39307;52.870;13.660;2023-03-31T00:52:44;99877.66;;;9.49
53412;BMP280;39307;52.870;13.660;2023-03-31T00:55:29;99872.44;;;9.49
53412;BMP280;39307;52.870;13.660;2023-03-31T00:57:59;99869.22;;;9.60
53412;BMP280;39307;52.870;13.660;2023-03-31T01:00:26;99860.34;;;9.54
53412;BMP280;39307;52.870;13.660;2023-03-31T01:02:55;99865.41;;;9.56
53412;BMP280;39307;52.870;13.660;2023-03-31T01:05:38;99856.94;;;9.54
53412;BMP280;39307;52.870;13.660;2023-03-31T01:08:08;99854.72;;;9.51
53412;BMP280;39307;52.870;13.660;2023-03-31T01:10:38;99839.84;;;9.51
53412;BMP280;39307;52.870;13.660;2023-03-31T01:13:11;99839.84;;;9.51
53412;BMP280;39307;52.870;13.660;2023-03-31T01:15:38;99843.69;;;9.49
53412;BMP280;39307;52.870;13.660;2023-03-31T01:18:05;99839.44;;;9.48
53412;BMP280;39307;52.870;13.660;2023-03-31T01:45:51;99816.72;;;9.42
53412;BMP280;39307;52.870;13.660;2023-03-31T01:48:34;99816.13;;;9.40
53412;BMP280;39307;52.870;13.660;2023-03-31T01:51:25;99803.66;;;9.36
53412;BMP280;39307;52.870;13.660;2023-03-31T01:57:29;99814.47;;;9.33
53412;BMP280;39307;52.870;13.660;2023-03-31T02:00:13;99817.09;;;9.33
53412;BMP280;39307;52.870;13.660;2023-03-31T02:03:05;99803.63;;;9.29
53412;BMP280;39307;52.870;13.660;2023-03-31T02:05:40;99805.22;;;9.30
53412;BMP280;39307;52.870;13.660;2023-03-31T02:08:19;99800.84;;;9.31
53412;BMP280;39307;52.870;13.660;2023-03-31T02:10:48;99799.81;;;9.32
53412;BMP280;39307;52.870;13.660;2023-03-31T02:13:18;99796.41;;;9.31
53412;BMP280;39307;52.870;13.660;2023-03-31T02:15:51;99788.75;;;9.30
53412;BMP280;39307;52.870;13.660;2023-03-31T02:18:24;99787.38;;;9.34
53412;BMP280;39307;52.870;13.660;2023-03-31T02:20:52;99789.56;;;9.37
53412;BMP280;39307;52.870;13.660;2023-03-31T02:23:23;99791.19;;;9.31
53412;BMP280;39307;52.870;13.660;2023-03-31T02:25:53;99777.50;;;9.29
53412;BMP280;39307;52.870;13.660;2023-03-31T02:28:25;99777.09;;;9.26
53412;BMP280;39307;52.870;13.660;2023-03-31T02:33:47;99787.16;;;9.22
53412;BMP280;39307;52.870;13.660;2023-03-31T02:36:13;99774.69;;;9.24
53412;BMP280;39307;52.870;13.660;2023-03-31T02:38:46;99771.47;;;9.22
53412;BMP280;39307;52.870;13.660;2023-03-31T02:41:13;99772.25;;;9.10
53412;BMP280;39307;52.870;13.660;2023-03-31T02:43:40;99765.78;;;9.06
53412;BMP280;39307;52.870;13.660;2023-03-31T02:46:06;99770.59;;;9.03
53412;BMP280;39307;52.870;13.660;2023-03-31T02:48:40;99762.56;;;8.98
53412;BMP280;39307;52.870;13.660;2023-03-31T03:02:26;99758.13;;;8.92
53412;BMP280;39307;52.870;13.660;2023-03-31T03:05:06;99748.25;;;8.88
53412;BMP280;39307;52.870;13.660;2023-03-31T03:10:19;99758.25;;;8.84
53412;BMP280;39307;52.870;13.660;2023-03-31T03:12:55;99765.47;;;8.82
53412;BMP280;39307;52.870;13.660;2023-03-31T03:15:34;99753.81;;;8.72
53412;BMP280;39307;52.870;13.660;2023-03-31T03:18:04;99761.38;;;8.67
53412;BMP280;39307;52.870;13.660;2023-03-31T03:20:30;99755.19;;;8.68
53412;BMP280;39307;52.870;13.660;2023-03-31T03:22:56;99759.00;;;8.65
53412;BMP280;39307;52.870;13.660;2023-03-31T03:25:23;99756.13;;;8.61
53412;BMP280;39307;52.870;13.660;2023-03-31T03:27:49;99749.31;;;8.60
53412;BMP280;39307;52.870;13.660;2023-03-31T03:30:15;99753.34;;;8.62
53412;BMP280;39307;52.870;13.660;2023-03-31T03:32:41;99756.13;;;8.61
53412;BMP280;39307;52.870;13.660;2023-03-31T03:35:07;99734.28;;;8.62
53412;BMP280;39307;52.870;13.660;2023-03-31T03:37:34;99740.69;;;8.59
53412;BMP280;39307;52.870;13.660;2023-03-31T03:40:01;99733.06;;;8.58
53412;BMP280;39307;52.870;13.660;2023-03-31T03:42:27;99738.22;;;8.51
53412;BMP280;39307;52.870;13.660;2023-03-31T03:44:53;99736.81;;;8.49
53412;BMP280;39307;52.870;13.660;2023-03-31T03:47:20;99743.03;;;8.48
53412;BMP280;39307;52.870;13.660;2023-03-31T03:49:46;99737.81;;;8.48
53412;BMP280;39307;52.870;13.660;2023-03-31T03:52:12;99747.25;;;8.49
53412;BMP280;39307;52.870;13.660;2023-03-31T03:54:38;99736.81;;;8.49
53412;BMP280;39307;52.870;13.660;2023-03-31T03:57:04;99725.78;;;8.47
53412;BMP280;39307;52.870;13.660;2023-03-31T03:59:30;99723.78;;;8.49
53412;BMP280;39307;52.870;13.660;2023-03-31T04:01:56;99728.19;;;8.48
53412;BMP280;39307;52.870;13.660;2023-03-31T04:04:23;99725.41;;;8.50
53412;BMP280;39307;52.870;13.660;2023-03-31T04:06:49;99717.75;;;8.48
53412;BMP280;39307;52.870;13.660;2023-03-31T04:09:15;99716.16;;;8.47
53412;BMP280;39307;52.870;13.660;2023-03-31T04:11:41;99715.94;;;8.49
53412;BMP280;39307;52.870;13.660;2023-03-31T04:14:08;99697.53;;;8.57
53412;BMP280;39307;52.870;13.660;2023-03-31T04:16:34;99700.97;;;8.63
53412;BMP280;39307;52.870;13.660;2023-03-31T04:19:00;99698.97;;;8.65
53412;BMP280;39307;52.870;13.660;2023-03-31T04:21:27;99702.81;;;8.69
53412;BMP280;39307;52.870;13.660;2023-03-31T04:23:53;99700.03;;;8.71
53412;BMP280;39307;52.870;13.660;2023-03-31T04:26:19;99695.19;;;8.68
53412;BMP280;39307;52.870;13.660;2023-03-31T04:28:46;99696.16;;;8.67
53412;BMP280;39307;52.870;13.660;2023-03-31T04:31:13;99690.94;;;8.67
53412;BMP280;39307;52.870;13.660;2023-03-31T04:33:40;99690.78;;;8.68
53412;BMP280;39307;52.870;13.660;2023-03-31T04:36:07;99686.19;;;8.77
53412;BMP280;39307;52.870;13.660;2023-03-31T04:38:34;99682.16;;;8.74
53412;BMP280;39307;52.870;13.660;2023-03-31T04:41:00;99680.56;;;8.73
53412;BMP280;39307;52.870;13.660;2023-03-31T04:43:26;99675.75;;;8.77
53412;BMP280;39307;52.870;13.660;2023-03-31T04:45:52;99677.34;;;8.78
53412;BMP280;39307;52.870;13.660;2023-03-31T04:48:19;99667.72;;;8.78
53412;BMP280;39307;52.870;13.660;2023-03-31T04:50:46;99665.09;;;8.78
53412;BMP280;39307;52.870;13.660;2023-03-31T04:53:12;99668.09;;;8.75
53412;BMP280;39307;52.870;13.660;2023-03-31T04:55:38;99660.50;;;8.74
53412;BMP280;39307;52.870;13.660;2023-03-31T04:58:04;99652.06;;;8.72
53412;BMP280;39307;52.870;13.660;2023-03-31T05:00:30;99653.06;;;8.71
53412;BMP280;39307;52.870;13.660;2023-03-31T05:02:58;99646.03;;;8.71
53412;BMP280;39307;52.870;13.660;2023-03-31T05:05:24;99655.47;;;8.72
53412;BMP280;39307;52.870;13.660;2023-03-31T05:07:50;99648.25;;;8.74
53412;BMP280;39307;52.870;13.660;2023-03-31T05:10:17;99643.03;;;8.74
53412;BMP280;39307;52.870;13.660;2023-03-31T05:12:43;99637.19;;;8.72
53412;BMP280;39307;52.870;13.660;2023-03-31T05:15:10;99629.97;;;8.74
53412;BMP280;39307;52.870;13.660;2023-03-31T05:17:36;99624.38;;;8.77
53412;BMP280;39307;52.870;13.660;2023-03-31T05:20:02;99612.34;;;8.76
53412;BMP280;39307;52.870;13.660;2023-03-31T05:22:29;99622.78;;;8.76
53412;BMP280;39307;52.870;13.660;2023-03-31T05:24:55;99616.16;;;8.80
53412;BMP280;39307;52.870;13.660;2023-03-31T05:27:21;99616.16;;;8.80
53412;BMP280;39307;52.870;13.660;2023-03-31T05:29:47;99609.75;;;8.83
53412;BMP280;39307;52.870;13.660;2023-03-31T05:32:14;99617.34;;;8.84
53412;BMP280;39307;52.870;13.660;2023-03-31T05:34:40;99617.34;;;8.84
53412;BMP280;39307;52.870;13.660;2023-03-31T05:37:06;99613.72;;;8.85
53412;BMP280;39307;52.870;13.660;2023-03-31T05:39:33;99614.34;;;8.87
53412;BMP280;39307;52.870;13.660;2023-03-31T05:41:59;99605.50;;;8.88
53412;BMP280;39307;52.870;13.660;2023-03-31T05:44:26;99607.94;;;8.90
53412;BMP280;39307;52.870;13.660;2023-03-31T05:46:53;99607.53;;;8.93
53412;BMP280;39307;52.870;13.660;2023-03-31T05:49:19;99597.50;;;8.96
53412;BMP280;39307;52.870;13.660;2023-03-31T05:51:45;99594.72;;;8.97
53412;BMP280;39307;52.870;13.660;2023-03-31T05:54:11;99590.28;;;8.98
53412;BMP280;39307;52.870;13.660;2023-03-31T05:56:38;99583.25;;;8.98
53412;BMP280;39307;52.870;13.660;2023-03-31T05:59:04;99583.66;;;9.02
53412;BMP280;39307;52.870;13.660;2023-03-31T06:01:30;99578.03;;;9.05
53412;BMP280;39307;52.870;13.660;2023-03-31T06:03:56;99574.63;;;9.04
53412;BMP280;39307;52.870;13.660;2023-03-31T06:06:22;99580.03;;;9.03
53412;BMP280;39307;52.870;13.660;2023-03-31T06:08:49;99577.44;;;9.03
53412;BMP280;39307;52.870;13.660;2023-03-31T06:11:18;99573.03;;;9.10
53412;BMP280;39307;52.870;13.660;2023-03-31T06:13:46;99577.84;;;9.13
53412;BMP280;39307;52.870;13.660;2023-03-31T06:16:14;99580.47;;;9.19
53412;BMP280;39307;52.870;13.660;2023-03-31T06:18:41;99573.44;;;9.26
53412;BMP280;39307;52.870;13.660;2023-03-31T06:21:15;99572.00;;;9.30
53412;BMP280;39307;52.870;13.660;2023-03-31T06:23:42;99568.00;;;9.34
53412;BMP280;39307;52.870;13.660;2023-03-31T06:26:10;99560.16;;;9.40
53412;BMP280;39307;52.870;13.660;2023-03-31T06:28:37;99563.19;;;9.44
53412;BMP280;39307;52.870;13.660;2023-03-31T06:31:09;99559.38;;;9.46
53412;BMP280;39307;52.870;13.660;2023-03-31T06:33:36;99547.09;;;9.53
53412;BMP280;39307;52.870;13.660;2023-03-31T06:36:03;99563.75;;;9.58
53412;BMP280;39307;52.870;13.660;2023-03-31T06:38:30;99560.75;;;9.61
53412;BMP280;39307;52.870;13.660;2023-03-31T06:40:56;99554.09;;;9.65
53412;BMP280;39307;52.870;13.660;2023-03-31T06:43:23;99545.63;;;9.70
53412;BMP280;39307;52.870;13.660;2023-03-31T06:45:49;99537.38;;;9.73
53412;BMP280;39307;52.870;13.660;2023-03-31T06:48:18;99544.00;;;9.75
53412;BMP280;39307;52.870;13.660;2023-03-31T06:50:44;99543.00;;;9.76
53412;BMP280;39307;52.870;13.660;2023-03-31T06:53:11;99533.38;;;9.77
53412;BMP280;39307;52.870;13.660;2023-03-31T06:55:37;99535.16;;;9.82
53412;BMP280;39307;52.870;13.660;2023-03-31T06:58:06;99547.00;;;9.91
53412;BMP280;39307;52.870;13.660;2023-03-31T07:00:32;99548.19;;;10.02
53412;BMP280;39307;52.870;13.660;2023-03-31T07:02:59;99546.53;;;10.13
53412;BMP280;39307;52.870;13.660;2023-03-31T07:05:26;99529.00;;;10.20
53412;BMP280;39307;52.870;13.660;2023-03-31T07:07:53;99525.75;;;10.31
53412;BMP280;39307;52.870;13.660;2023-03-31T07:10:20;99522.47;;;10.36
53412;BMP280;39307;52.870;13.660;2023-03-31T07:12:48;99525.28;;;10.40
53412;BMP280;39307;52.870;13.660;2023-03-31T07:15:14;99522.16;;;10.56
53412;BMP280;39307;52.870;13.660;2023-03-31T07:17:40;99528.00;;;10.58
53412;BMP280;39307;52.870;13.660;2023-03-31T07:20:08;99531.59;;;10.57
53412;BMP280;39307;52.870;13.660;2023-03-31T07:22:35;99528.56;;;10.60
53412;BMP280;39307;52.870;13.660;2023-03-31T07:25:01;99520.09;;;10.65
53412;BMP280;39307;52.870;13.660;2023-03-31T07:27:27;99523.09;;;10.68
53412;BMP280;39307;52.870;13.660;2023-03-31T07:29:53;99509.31;;;10.79
53412;BMP280;39307;52.870;13.660;2023-03-31T07:32:19;99505.66;;;10.86
53412;BMP280;39307;52.870;13.660;2023-03-31T07:34:46;99507.41;;;10.92
53412;BMP280;39307;52.870;13.660;2023-03-31T07:37:12;99514.50;;;11.09
53412;BMP280;39307;52.870;13.660;2023-03-31T07:39:38;99518.69;;;11.17
53412;BMP280;39307;52.870;13.660;2023-03-31T07:42:04;99498.56;;;11.35
53412;BMP280;39307;52.870;13.660;2023-03-31T07:44:34;99495.28;;;11.63
53412;BMP280;39307;52.870;13.660;2023-03-31T07:47:00;99479.25;;;12.18
53412;BMP280;39307;52.870;13.660;2023-03-31T07:49:27;99467.50;;;12.78
53412;BMP280;39307;52.870;13.660;2023-03-31T07:51:53;99478.28;;;13.22
53412;BMP280;39307;52.870;13.660;2023-03-31T07:54:19;99458.13;;;13.61
53412;BMP280;39307;52.870;13.660;2023-03-31T07:56:45;99452.72;;;14.18
53412;BMP280;39307;52.870;13.660;2023-03-31T07:59:11;99452.63;;;14.41
53412;BMP280;39307;52.870;13.660;2023-03-31T08:01:38;99449.38;;;14.50
53412;BMP280;39307;52.870;13.660;2023-03-31T08:04:04;99446.78;;;14.39
53412;BMP280;39307;52.870;13.660;2023-03-31T08:06:30;99444.03;;;14.61
53412;BMP280;39307;52.870;13.660;2023-03-31T08:08:57;99431.09;;;14.76
53412;BMP280;39307;52.870;13.660;2023-03-31T08:11:24;99438.00;;;14.77
53412;BMP280;39307;52.870;13.660;2023-03-31T08:13:51;99434.06;;;14.79
53412;BMP280;39307;52.870;13.660;2023-03-31T08:16:17;99436.22;;;14.99
53412;BMP280;39307;52.870;13.660;2023-03-31T08:18:43;99432.53;;;15.32
53412;BMP280;39307;52.870;13.660;2023-03-31T08:21:10;99419.72;;;15.83
53412;BMP280;39307;52.870;13.660;2023-03-31T08:23:36;99415.06;;;15.89
53412;BMP280;39307;52.870;13.660;2023-03-31T08:26:10;99417.72;;;15.89
53412;BMP280;39307;52.870;13.660;2023-03-31T08:28:37;99429.28;;;15.67
53412;BMP280;39307;52.870;13.660;2023-03-31T08:31:05;99427.31;;;15.58
53412;BMP280;39307;52.870;13.660;2023-03-31T08:33:31;99431.56;;;15.38
53412;BMP280;39307;52.870;13.660;2023-03-31T08:36:02;99421.59;;;15.24
53412;BMP280;39307;52.870;13.660;2023-03-31T08:38:29;99417.06;;;15.19
53412;BMP280;39307;52.870;13.660;2023-03-31T08:41:01;99418.00;;;15.30
53412;BMP280;39307;52.870;13.660;2023-03-31T08:43:41;99420.94;;;15.00
53412;BMP280;39307;52.870;13.660;2023-03-31T08:46:12;99420.59;;;14.92
53412;BMP280;39307;52.870;13.660;2023-03-31T08:48:45;99419.78;;;14.92
53412;BMP280;39307;52.870;13.660;2023-03-31T08:51:28;99410.34;;;14.79
53412;BMP280;39307;52.870;13.660;2023-03-31T08:54:05;99412.59;;;14.71
53412;BMP280;39307;52.870;13.660;2023-03-31T08:56:35;99412.75;;;14.81
53412;BMP280;39307;52.870;13.660;2023-03-31T08:59:02;99404.13;;;14.69
53412;BMP280;39307;52.870;13.660;2023-03-31T09:09:53;99392.94;;;14.46
53412;BMP280;39307;52.870;13.660;2023-03-31T09:15:41;99385.19;;;14.40
53412;BMP280;39307;52.870;13.660;2023-03-31T09:18:28;99390.63;;;14.33
53412;BMP280;39307;52.870;13.660;2023-03-31T09:21:19;99378.91;;;14.41
53412;BMP280;39307;52.870;13.660;2023-03-31T09:24:09;99372.59;;;14.42
53412;BMP280;39307;52.870;13.660;2023-03-31T09:26:42;99362.97;;;14.47
53412;BMP280;39307;52.870;13.660;2023-03-31T09:32:18;99363.50;;;14.49
53412;BMP280;39307;52.870;13.660;2023-03-31T09:34:45;99366.47;;;14.52
53412;BMP280;39307;52.870;13.660;2023-03-31T09:37:12;99363.28;;;14.50
53412;BMP280;39307;52.870;13.660;2023-03-31T09:39:41;99355.59;;;14.49
53412;BMP280;39307;52.870;13.660;2023-03-31T09:42:14;99352.66;;;14.45
53412;BMP280;39307;52.870;13.660;2023-03-31T09:44:47;99339.97;;;14.43
53412;BMP280;39307;52.870;13.660;2023-03-31T09:47:31;99344.44;;;14.42
53412;BMP280;39307;52.870;13.660;2023-03-31T09:49:58;99335.59;;;14.32
53412;BMP280;39307;52.870;13.660;2023-03-31T09:52:31;99327.53;;;14.38
53412;BMP280;39307;52.870;13.660;2023-03-31T09:55:08;99325.78;;;14.43
53412;BMP280;39307;52.870;13.660;2023-03-31T09:57:40;99327.19;;;14.67
53412;BMP280;39307;52.870;13.660;2023-03-31T10:00:20;99319.81;;;14.85
53412;BMP280;39307;52.870;13.660;2023-03-31T10:02:54;99319.38;;;14.72
53412;BMP280;39307;52.870;13.660;2023-03-31T10:05:27;99305.81;;;14.64
53412;BMP280;39307;52.870;13.660;2023-03-31T10:08:19;99305.66;;;14.54
53412;BMP280;39307;52.870;13.660;2023-03-31T10:10:54;99296.50;;;14.56
53412;BMP280;39307;52.870;13.660;2023-03-31T10:13:27;99295.44;;;14.57
53412;BMP280;39307;52.870;13.660;2023-03-31T10:16:04;99289.06;;;14.53
53412;BMP280;39307;52.870;13.660;2023-03-31T10:18:36;99281.88;;;14.65
53412;BMP280;39307;52.870;13.660;2023-03-31T10:21:06;99286.53;;;14.79
53412;BMP280;39307;52.870;13.660;2023-03-31T10:23:34;99272.47;;;14.90
53412;BMP280;39307;52.870;13.660;2023-03-31T10:26:01;99280.06;;;14.87
53412;BMP280;39307;52.870;13.660;2023-03-31T10:28:32;99276.69;;;14.91
53412;BMP280;39307;52.870;13.660;2023-03-31T10:31:00;99282.63;;;14.82
53412;BMP280;39307;52.870;13.660;2023-03-31T10:33:29;99270.50;;;14.81
53412;BMP280;39307;52.870;13.660;2023-03-31T10:35:58;99280.72;;;14.77
53412;BMP280;39307;52.870;13.660;2023-03-31T10:38:32;99277.00;;;14.73
53412;BMP280;39307;52.870;13.660;2023-03-31T10:41:00;99266.50;;;14.78
53412;BMP280;39307;52.870;13.660;2023-03-31T10:43:29;99255.25;;;14.83
53412;BMP280;39307;52.870;13.660;2023-03-31T10:45:59;99259.09;;;14.75
53412;BMP280;39307;52.870;13.660;2023-03-31T10:48:29;99254.97;;;14.63
53412;BMP280;39307;52.870;13.660;2023-03-31T10:53:51;99243.75;;;14.51
53412;BMP280;39307;52.870;13.660;2023-03-31T10:59:27;99236.28;;;14.43
53412;BMP280;39307;52.870;13.660;2023-03-31T11:02:22;99233.66;;;14.43
53412;BMP280;39307;52.870;13.660;2023-03-31T11:05:15;99226.06;;;14.31
53412;BMP280;39307;52.870;13.660;2023-03-31T11:08:03;99216.72;;;14.56
53412;BMP280;39307;52.870;13.660;2023-03-31T11:11:00;99208.63;;;14.62
53412;BMP280;39307;52.870;13.660;2023-03-31T11:16:58;99203.38;;;15.04
53412;BMP280;39307;52.870;13.660;2023-03-31T11:22:30;99196.81;;;14.86
53412;BMP280;39307;52.870;13.660;2023-03-31T11:30:27;99176.59;;;14.91
53412;BMP280;39307;52.870;13.660;2023-03-31T11:44:42;99169.81;;;14.74
53412;BMP280;39307;52.870;13.660;2023-03-31T11:47:16;99168.19;;;14.73
53412;BMP280;39307;52.870;13.660;2023-03-31T11:49:58;99171.56;;;14.69
53412;BMP280;39307;52.870;13.660;2023-03-31T11:52:33;99182.41;;;14.14
53412;BMP280;39307;52.870;13.660;2023-03-31T11:55:16;99171.34;;;13.95
53412;BMP280;39307;52.870;13.660;2023-03-31T11:57:50;99172.34;;;13.94
53412;BMP280;39307;52.870;13.660;2023-03-31T12:00:21;99163.47;;;13.95
53412;BMP280;39307;52.870;13.660;2023-03-31T12:02:52;99161.75;;;13.89
53412;BMP280;39307;52.870;13.660;2023-03-31T12:05:23;99156.72;;;13.88
53412;BMP280;39307;52.870;13.660;2023-03-31T12:10:37;99138.25;;;13.83
53412;BMP280;39307;52.870;13.660;2023-03-31T12:15:39;99126.63;;;13.95
53412;BMP280;39307;52.870;13.660;2023-03-31T12:18:14;99105.41;;;14.02
53412;BMP280;39307;52.870;13.660;2023-03-31T12:20:56;99114.22;;;14.12
53412;BMP280;39307;52.870;13.660;2023-03-31T12:23:33;99110.94;;;14.21
53412;BMP280;39307;52.870;13.660;2023-03-31T12:28:32;99106.91;;;14.35
53412;BMP280;39307;52.870;13.660;2023-03-31T12:31:00;99106.13;;;14.35
53412;BMP280;39307;52.870;13.660;2023-03-31T12:36:49;99102.19;;;14.16
53412;BMP280;39307;52.870;13.660;2023-03-31T12:39:39;99098.22;;;14.14
53412;BMP280;39307;52.870;13.660;2023-03-31T12:42:31;99096.94;;;14.16
53412;BMP280;39307;52.870;13.660;2023-03-31T12:45:26;99088.03;;;14.22
53412;BMP280;39307;52.870;13.660;2023-03-31T12:51:06;99067.47;;;14.40
53412;BMP280;39307;52.870;13.660;2023-03-31T12:54:02;99071.09;;;14.55
53412;BMP280;39307;52.870;13.660;2023-03-31T12:57:02;99070.91;;;14.62
53412;BMP280;39307;52.870;13.660;2023-03-31T12:59:36;99059.63;;;14.66
53412;BMP280;39307;52.870;13.660;2023-03-31T13:04:41;99046.88;;;14.58
53412;BMP280;39307;52.870;13.660;2023-03-31T13:13:00;99043.56;;;14.42
53412;BMP280;39307;52.870;13.660;2023-03-31T13:15:27;99037.81;;;14.44
53412;BMP280;39307;52.870;13.660;2023-03-31T13:18:00;99033.09;;;14.46
53412;BMP280;39307;52.870;13.660;2023-03-31T13:25:48;99017.59;;;14.50
53412;BMP280;39307;52.870;13.660;2023-03-31T13:28:17;99021.09;;;14.55
53412;BMP280;39307;52.870;13.660;2023-03-31T13:31:01;99022.31;;;14.48
53412;BMP280;39307;52.870;13.660;2023-03-31T13:36:23;99014.69;;;14.51
53412;BMP280;39307;52.870;13.660;2023-03-31T13:39:25;99017.63;;;14.55
53412;BMP280;39307;52.870;13.660;2023-03-31T13:45:00;99021.16;;;14.39
53412;BMP280;39307;52.870;13.660;2023-03-31T13:48:03;99024.84;;;14.17
53412;BMP280;39307;52.870;13.660;2023-03-31T13:51:08;99030.25;;;13.89
53412;BMP280;39307;52.870;13.660;2023-03-31T13:56:54;99025.34;;;13.77
53412;BMP280;39307;52.870;13.660;2023-03-31T14:05:27;99023.25;;;13.41
53412;BMP280;39307;52.870;13.660;2023-03-31T14:10:37;99015.44;;;13.30
53412;BMP280;39307;52.870;13.660;2023-03-31T14:13:14;99022.69;;;13.23
53412;BMP280;39307;52.870;13.660;2023-03-31T14:15:46;99030.44;;;13.13
53412;BMP280;39307;52.870;13.660;2023-03-31T14:18:26;99031.28;;;13.02
53412;BMP280;39307;52.870;13.660;2023-03-31T14:21:03;99029.19;;;12.88
53412;BMP280;39307;52.870;13.660;2023-03-31T14:32:24;99022.34;;;12.60
53412;BMP280;39307;52.870;13.660;2023-03-31T14:35:07;99024.22;;;12.48
53412;BMP280;39307;52.870;13.660;2023-03-31T14:37:37;99029.28;;;12.38
53412;BMP280;39307;52.870;13.660;2023-03-31T14:40:04;99024.22;;;12.48
53412;BMP280;39307;52.870;13.660;2023-03-31T14:42:40;99025.16;;;12.42
53412;BMP280;39307;52.870;13.660;2023-03-31T14:45:17;99027.78;;;12.42
53412;BMP280;39307;52.870;13.660;2023-03-31T14:48:10;99023.59;;;12.41
53412;BMP280;39307;52.870;13.660;2023-03-31T14:50:37;99023.94;;;12.33
53412;BMP280;39307;52.870;13.660;2023-03-31T14:53:14;99025.56;;;12.34
53412;BMP280;39307;52.870;13.660;2023-03-31T14:55:42;99024.72;;;12.34
53412;BMP280;39307;52.870;13.660;2023-03-31T14:58:12;99017.56;;;12.29
53412;BMP280;39307;52.870;13.660;2023-03-31T15:00:40;99026.25;;;12.30
53412;BMP280;39307;52.870;13.660;2023-03-31T15:03:08;99021.38;;;12.22
53412;BMP280;39307;52.870;13.660;2023-03-31T15:05:38;99019.69;;;12.16
53412;BMP280;39307;52.870;13.660;2023-03-31T15:08:23;99011.56;;;12.17
53412;BMP280;39307;52.870;13.660;2023-03-31T15:10:55;99022.06;;;12.17
53412;BMP280;39307;52.870;13.660;2023-03-31T15:13:34;99020.41;;;12.28
53412;BMP280;39307;52.870;13.660;2023-03-31T15:16:29;99019.47;;;12.06
53412;BMP280;39307;52.870;13.660;2023-03-31T15:18:58;99025.88;;;11.99
53412;BMP280;39307;52.870;13.660;2023-03-31T15:21:27;99016.63;;;12.08
53412;BMP280;39307;52.870;13.660;2023-03-31T15:23:55;99015.00;;;12.07
53412;BMP280;39307;52.870;13.660;2023-03-31T15:26:26;99018.22;;;11.97
53412;BMP280;39307;52.870;13.660;2023-03-31T15:29:00;99021.44;;;11.88
53412;BMP280;39307;52.870;13.660;2023-03-31T15:31:30;99012.22;;;11.85
53412;BMP280;39307;52.870;13.660;2023-03-31T15:33:56;99023.28;;;11.76
53412;BMP280;39307;52.870;13.660;2023-03-31T15:36:23;99019.78;;;11.71
53412;BMP280;39307;52.870;13.660;2023-03-31T15:38:56;99020.09;;;11.74
53412;BMP280;39307;52.870;13.660;2023-03-31T15:41:23;99019.78;;;11.71
53412;BMP280;39307;52.870;13.660;2023-03-31T15:47:00;99022.16;;;11.72
53412;BMP280;39307;52.870;13.660;2023-03-31T15:49:27;99017.81;;;11.66
53412;BMP280;39307;52.870;13.660;2023-03-31T15:51:54;99018.97;;;11.59
53412;BMP280;39307;52.870;13.660;2023-03-31T15:54:35;99022.59;;;11.58
53412;BMP280;39307;52.870;13.660;2023-03-31T15:57:06;99019.19;;;11.57
53412;BMP280;39307;52.870;13.660;2023-03-31T15:59:45;99007.34;;;11.55
53412;BMP280;39307;52.870;13.660;2023-03-31T16:02:17;99015.00;;;11.56
53412;BMP280;39307;52.870;13.660;2023-03-31T16:04:48;99010.53;;;11.46
53412;BMP280;39307;52.870;13.660;2023-03-31T16:07:22;99011.13;;;11.48
53412;BMP280;39307;52.870;13.660;2023-03-31T16:10:15;99019.44;;;11.45
53412;BMP280;39307;52.870;13.660;2023-03-31T16:12:59;99009.66;;;11.40
53412;BMP280;39307;52.870;13.660;2023-03-31T16:15:39;99002.69;;;11.34
53412;BMP280;39307;52.870;13.660;2023-03-31T16:18:22;99012.00;;;11.30
53412;BMP280;39307;52.870;13.660;2023-03-31T16:20:57;99011.66;;;11.27
53412;BMP280;39307;52.870;13.660;2023-03-31T16:23:31;99015.19;;;11.21
53412;BMP280;39307;52.870;13.660;2023-03-31T16:25:58;99011.66;;;11.27
53412;BMP280;39307;52.870;13.660;2023-03-31T16:28:28;99006.41;;;11.27
53412;BMP280;39307;52.870;13.660;2023-03-31T16:30:55;99010.66;;;11.28
53412;BMP280;39307;52.870;13.660;2023-03-31T16:33:22;99009.81;;;11.27
53412;BMP280;39307;52.870;13.660;2023-03-31T16:35:52;99011.75;;;11.21
53412;BMP280;39307;52.870;13.660;2023-03-31T16:38:20;99010.84;;;11.15
53412;BMP280;39307;52.870;13.660;2023-03-31T16:40:51;99020.75;;;11.13
53412;BMP280;39307;52.870;13.660;2023-03-31T16:43:25;99008.22;;;11.15
53412;BMP280;39307;52.870;13.660;2023-03-31T16:45:54;99003.44;;;11.12
53412;BMP280;39307;52.870;13.660;2023-03-31T16:48:23;98995.38;;;11.14
53412;BMP280;39307;52.870;13.660;2023-03-31T16:50:52;99006.31;;;11.11
53412;BMP280;39307;52.870;13.660;2023-03-31T16:53:21;99000.47;;;11.09